Time;durP1;ratioP1;P1;durP2;ratioP2;P2;SDS_P1;SDS_P2;PMS_P1;PMS_P2;Temp;Humidity;BMP_temperature;BMP_pressure;BME280_temperature;BME280_humidity;BME280_pressure;Samples;Min_cycle;Max_cycle;Signal;HPM_P1;HPM_P2
2022/02/24 00:02:06;;;;;;;9.43;1.52;;;8.40;99.90;;;;;;5029711;28;20036;-80
2022/02/24 00:04:32;;;;;;;9.85;2.33;;;8.40;99.90;;;;;;5041813;28;20021;-80
2022/02/24 00:06:58;;;;;;;10.13;1.83;;;8.40;99.90;;;;;;5033324;28;20500;-80
2022/02/24 00:09:24;;;;;;;11.60;1.52;;;8.40;99.90;;;;;;5016176;28;20112;-80
2022/02/24 00:11:49;;;;;;;13.10;1.88;;;8.40;99.90;;;;;;5033414;28;20053;-80
2022/02/24 00:14:15;;;;;;;11.60;1.67;;;8.30;99.90;;;;;;5033287;28;20633;-80
2022/02/24 00:16:40;;;;;;;8.85;1.77;;;8.30;99.90;;;;;;5033216;28;20481;-81
2022/02/24 00:19:06;;;;;;;9.13;2.13;;;8.30;99.90;;;;;;5041735;28;20108;-79
2022/02/24 00:21:31;;;;;;;9.10;1.50;;;8.30;99.90;;;;;;5039091;28;20099;-81
2022/02/24 00:23:57;;;;;;;7.88;1.48;;;8.30;99.90;;;;;;5043671;28;20100;-80
2022/02/24 00:26:22;;;;;;;9.13;2.08;;;8.30;99.90;;;;;;5028013;28;20113;-80
2022/02/24 00:28:48;;;;;;;8.55;1.45;;;8.30;99.90;;;;;;5049541;28;20095;-80
2022/02/24 00:31:13;;;;;;;7.82;1.08;;;8.20;99.90;;;;;;5037456;28;20040;-80
2022/02/24 00:33:39;;;;;;;10.45;2.08;;;8.30;99.90;;;;;;5022575;28;20112;-80
2022/02/24 00:36:05;;;;;;;10.63;1.90;;;8.20;99.90;;;;;;5043124;28;20029;-80
2022/02/24 00:38:31;;;;;;;13.00;1.83;;;8.20;99.90;;;;;;5037134;28;20036;-79
2022/02/24 00:40:57;;;;;;;8.15;2.15;;;8.20;99.90;;;;;;5038930;28;20068;-80
2022/02/24 00:43:23;;;;;;;8.77;1.65;;;8.20;99.90;;;;;;5015980;28;20153;-81
2022/02/24 00:45:48;;;;;;;11.75;1.77;;;8.20;99.90;;;;;;5035962;28;20079;-80
2022/02/24 00:48:14;;;;;;;10.70;2.08;;;8.20;99.90;;;;;;5042583;28;20029;-80
2022/02/24 00:50:39;;;;;;;9.35;2.22;;;8.20;99.90;;;;;;5034350;28;20025;-79
2022/02/24 00:53:06;;;;;;;9.82;1.50;;;8.20;99.90;;;;;;5048625;28;20036;-80
2022/02/24 00:55:31;;;;;;;8.48;1.65;;;8.20;99.90;;;;;;5047753;28;20033;-80
2022/02/24 00:57:57;;;;;;;15.48;2.20;;;8.20;99.90;;;;;;5031851;28;20033;-80
2022/02/24 01:00:22;;;;;;;9.95;1.38;;;8.20;99.90;;;;;;5031397;28;20037;-80
2022/02/24 01:02:48;;;;;;;6.05;2.63;;;8.20;99.90;;;;;;5039679;28;20025;-80
2022/02/24 01:05:14;;;;;;;8.98;2.35;;;8.20;99.90;;;;;;5039861;28;20034;-81
2022/02/24 01:07:40;;;;;;;12.13;2.30;;;8.10;99.90;;;;;;5025971;28;20476;-80
2022/02/24 01:10:07;;;;;;;10.05;2.08;;;8.20;99.90;;;;;;5030954;28;20033;-80
2022/02/24 01:12:32;;;;;;;9.80;2.97;;;8.20;99.90;;;;;;5038374;28;20428;-80
2022/02/24 01:15:03;;;;;;;13.95;2.28;;;8.20;99.90;;;;;;5031525;28;20084;-80
2022/02/24 01:17:30;;;;;;;12.15;2.58;;;8.10;99.90;;;;;;5034829;28;20116;-80
2022/02/24 01:19:55;;;;;;;14.43;2.35;;;8.10;99.90;;;;;;5031941;28;20072;-80
2022/02/24 01:22:21;;;;;;;10.52;2.70;;;8.10;99.90;;;;;;5032466;28;20057;-81
2022/02/24 01:24:47;;;;;;;9.95;2.40;;;8.10;99.90;;;;;;5040226;28;20037;-80
2022/02/24 01:27:12;;;;;;;13.60;2.45;;;8.10;99.90;;;;;;5029627;28;20034;-80
2022/02/24 01:29:38;;;;;;;8.32;2.20;;;8.10;99.90;;;;;;5028943;28;20400;-80
2022/02/24 01:32:03;;;;;;;12.85;2.78;;;8.10;99.90;;;;;;5032095;28;20036;-81
2022/02/24 01:34:29;;;;;;;16.70;3.10;;;8.10;99.90;;;;;;5030427;28;20072;-81
2022/02/24 01:36:55;;;;;;;11.80;2.53;;;8.10;99.90;;;;;;5023883;28;20029;-81
2022/02/24 01:39:21;;;;;;;14.75;2.90;;;8.10;99.90;;;;;;5031649;28;20125;-81
2022/02/24 01:41:48;;;;;;;19.35;3.45;;;8.10;99.90;;;;;;5028725;28;20045;-80
2022/02/24 01:44:14;;;;;;;12.57;2.65;;;8.10;99.90;;;;;;5024392;28;20084;-80
2022/02/24 01:46:42;;;;;;;12.40;2.97;;;8.10;99.90;;;;;;5033969;28;20032;-81
2022/02/24 01:49:08;;;;;;;19.88;2.88;;;8.10;99.90;;;;;;5034353;28;20485;-81
2022/02/24 01:51:35;;;;;;;12.85;3.05;;;8.00;99.90;;;;;;5029199;28;20404;-81
2022/02/24 01:54:00;;;;;;;12.40;2.70;;;8.10;99.90;;;;;;5030862;28;20466;-81
2022/02/24 01:56:26;;;;;;;13.00;2.90;;;8.00;99.90;;;;;;5009587;28;20030;-80
2022/02/24 01:58:52;;;;;;;11.10;2.65;;;8.00;99.90;;;;;;5033618;28;20048;-80
2022/02/24 02:01:18;;;;;;;11.77;2.15;;;8.00;99.90;;;;;;5048526;28;20076;-81
2022/02/24 02:03:44;;;;;;;11.10;2.92;;;8.00;99.90;;;;;;5033196;28;20033;-81
2022/02/24 02:06:10;;;;;;;11.02;2.08;;;8.00;99.90;;;;;;5030019;28;20073;-81
2022/02/24 02:08:36;;;;;;;12.93;2.17;;;8.00;99.90;;;;;;5031224;28;20025;-80
2022/02/24 02:11:02;;;;;;;13.40;2.30;;;8.00;99.90;;;;;;5029244;28;20021;-80
2022/02/24 02:13:32;;;;;;;10.50;2.35;;;8.00;99.90;;;;;;5045864;28;20392;-80
2022/02/24 02:15:58;;;;;;;14.43;2.28;;;8.00;99.90;;;;;;5042526;28;20598;-80
2022/02/24 02:18:23;;;;;;;12.20;2.15;;;8.00;99.90;;;;;;5036733;28;20029;-81
2022/02/24 02:20:50;;;;;;;12.75;2.10;;;8.00;99.90;;;;;;5030820;28;20488;-80
2022/02/24 02:23:16;;;;;;;9.13;1.92;;;8.00;99.90;;;;;;5032298;28;20444;-80
2022/02/24 02:25:41;;;;;;;11.40;1.38;;;8.00;99.90;;;;;;5033228;28;20084;-80
2022/02/24 02:28:07;;;;;;;13.43;1.98;;;8.00;99.90;;;;;;5031048;28;20443;-80
2022/02/24 02:30:32;;;;;;;16.20;2.53;;;8.00;99.90;;;;;;5044941;28;20048;-80
2022/02/24 02:32:58;;;;;;;15.23;1.38;;;8.00;99.90;;;;;;5031153;28;20037;-80
2022/02/24 02:35:25;;;;;;;13.15;1.45;;;8.00;99.90;;;;;;5030573;28;20028;-79
2022/02/24 02:37:52;;;;;;;11.27;1.50;;;8.00;99.90;;;;;;5032789;28;20021;-80
2022/02/24 02:40:17;;;;;;;10.70;1.35;;;8.00;99.90;;;;;;5040930;28;20397;-80
2022/02/24 02:42:43;;;;;;;24.75;1.88;;;8.00;99.90;;;;;;5039298;28;20129;-81
2022/02/24 02:45:09;;;;;;;8.65;1.58;;;8.00;99.90;;;;;;5031114;28;20036;-80
2022/02/24 02:47:35;;;;;;;12.55;1.80;;;8.00;99.90;;;;;;5046540;28;20400;-80
2022/02/24 02:50:00;;;;;;;12.48;1.15;;;8.00;99.90;;;;;;5042025;28;20033;-81
2022/02/24 02:52:26;;;;;;;6.28;0.98;;;8.00;99.90;;;;;;5026182;28;20052;-80
2022/02/24 02:55:01;;;;;;;6.95;1.00;;;8.00;99.90;;;;;;5031110;28;20029;-80
2022/02/24 02:57:27;;;;;;;10.10;1.25;;;8.00;99.90;;;;;;5029734;28;20028;-80
2022/02/24 02:59:52;;;;;;;12.07;1.45;;;8.00;99.90;;;;;;5040631;28;20037;-80
2022/02/24 03:02:18;;;;;;;9.05;1.48;;;8.00;99.90;;;;;;5050429;28;20110;-80
2022/02/24 03:04:43;;;;;;;13.32;1.45;;;8.00;99.90;;;;;;5054472;28;20029;-81
2022/02/24 03:07:09;;;;;;;11.98;1.40;;;8.00;99.90;;;;;;5046750;28;20075;-81
2022/02/24 03:09:34;;;;;;;9.88;1.38;;;8.00;99.90;;;;;;5039696;28;20100;-80
2022/02/24 03:12:00;;;;;;;11.55;1.30;;;8.00;99.90;;;;;;5034457;28;20478;-80
2022/02/24 03:14:25;;;;;;;15.15;1.50;;;8.00;99.90;;;;;;5034392;28;20549;-81
2022/02/24 03:16:51;;;;;;;10.52;1.20;;;8.00;99.90;;;;;;5032487;28;20029;-80
2022/02/24 03:19:16;;;;;;;8.43;1.35;;;8.00;99.90;;;;;;5017373;28;20112;-81
2022/02/24 03:21:42;;;;;;;12.27;1.17;;;8.00;99.90;;;;;;5034577;28;20109;-80
2022/02/24 03:24:07;;;;;;;11.35;1.80;;;8.10;99.90;;;;;;5034456;28;20400;-80
2022/02/24 03:26:33;;;;;;;8.73;1.30;;;8.00;99.90;;;;;;5040466;28;20502;-81
2022/02/24 03:28:58;;;;;;;15.68;1.55;;;8.00;99.90;;;;;;5038841;28;20104;-80
2022/02/24 03:31:24;;;;;;;8.85;1.40;;;8.00;99.90;;;;;;5041447;28;20833;-80
2022/02/24 03:33:50;;;;;;;8.57;1.30;;;8.10;99.90;;;;;;5040307;28;20029;-80
2022/02/24 03:36:15;;;;;;;13.63;1.52;;;8.10;99.90;;;;;;5030649;28;20061;-81
2022/02/24 03:38:41;;;;;;;11.88;1.35;;;8.10;99.90;;;;;;5025798;28;20061;-80
2022/02/24 03:41:06;;;;;;;11.50;1.38;;;8.00;99.90;;;;;;5045321;28;20068;-81
2022/02/24 03:43:32;;;;;;;10.20;2.20;;;8.00;99.90;;;;;;5016457;28;20025;-80
2022/02/24 03:45:58;;;;;;;11.55;1.70;;;8.10;99.90;;;;;;5031303;28;20499;-80
2022/02/24 03:48:23;;;;;;;12.60;1.42;;;8.00;99.90;;;;;;5030014;28;20025;-80
2022/02/24 03:50:49;;;;;;;10.20;1.80;;;8.00;99.90;;;;;;5047500;28;20044;-80
2022/02/24 03:53:14;;;;;;;12.20;2.05;;;8.00;99.90;;;;;;5035505;28;20365;-80
2022/02/24 03:55:40;;;;;;;8.25;1.35;;;8.00;99.90;;;;;;5037522;28;20060;-81
2022/02/24 03:58:05;;;;;;;10.18;1.67;;;8.00;99.90;;;;;;5043041;28;20032;-81
2022/02/24 04:00:31;;;;;;;10.30;1.35;;;8.00;99.90;;;;;;5033346;28;20489;-81
2022/02/24 04:02:57;;;;;;;11.68;1.73;;;8.00;99.90;;;;;;5040182;28;20555;-80
2022/02/24 04:05:22;;;;;;;8.60;1.42;;;8.00;99.90;;;;;;5033731;28;20035;-80
2022/02/24 04:07:48;;;;;;;9.00;1.05;;;8.00;99.90;;;;;;5034780;28;20030;-81
2022/02/24 04:10:13;;;;;;;12.77;2.15;;;8.00;99.90;;;;;;5035498;28;20029;-80
2022/02/24 04:12:39;;;;;;;10.45;1.75;;;8.00;99.90;;;;;;5053388;28;20068;-81
2022/02/24 04:15:05;;;;;;;12.30;2.17;;;8.00;99.90;;;;;;5041455;28;20029;-81
2022/02/24 04:17:30;;;;;;;10.15;2.03;;;7.90;99.90;;;;;;5037844;28;20025;-81
2022/02/24 04:19:56;;;;;;;13.25;2.30;;;7.90;99.90;;;;;;5032517;28;20037;-80
2022/02/24 04:22:22;;;;;;;9.55;1.88;;;7.90;99.90;;;;;;5036449;28;20041;-80
2022/02/24 04:24:47;;;;;;;10.27;1.85;;;7.90;99.90;;;;;;5033519;28;20033;-79
2022/02/24 04:27:13;;;;;;;12.93;2.50;;;7.80;99.90;;;;;;5038194;28;20017;-80
2022/02/24 04:29:39;;;;;;;8.07;2.10;;;7.90;99.90;;;;;;5034121;28;20523;-81
2022/02/24 04:32:05;;;;;;;9.30;2.30;;;7.80;99.90;;;;;;5042656;28;20029;-81
2022/02/24 04:34:30;;;;;;;11.77;2.40;;;7.80;99.90;;;;;;5037039;28;20457;-79
2022/02/24 04:36:56;;;;;;;14.80;2.60;;;7.80;99.90;;;;;;5031463;28;20030;-80
2022/02/24 04:39:21;;;;;;;9.45;2.45;;;7.80;99.90;;;;;;5032230;28;20044;-79
2022/02/24 04:41:47;;;;;;;13.30;2.70;;;7.80;99.90;;;;;;5026927;28;20033;-80
2022/02/24 04:44:12;;;;;;;7.50;1.50;;;7.80;99.90;;;;;;5026665;28;20489;-80
2022/02/24 04:46:38;;;;;;;9.68;1.70;;;7.80;99.90;;;;;;5033480;28;20473;-81
2022/02/24 04:49:04;;;;;;;10.15;1.90;;;7.80;99.90;;;;;;5040292;28;20211;-80
2022/02/24 04:51:30;;;;;;;15.20;1.92;;;7.80;99.90;;;;;;5022098;28;20056;-81
2022/02/24 04:53:55;;;;;;;14.40;2.00;;;7.80;99.90;;;;;;5024776;28;20416;-81
2022/02/24 04:56:21;;;;;;;12.05;2.35;;;7.80;99.90;;;;;;5032884;28;20529;-80
2022/02/24 04:58:47;;;;;;;11.63;1.52;;;7.80;99.90;;;;;;5033339;28;20018;-81
2022/02/24 05:01:12;;;;;;;12.60;1.90;;;7.90;99.90;;;;;;5032783;28;20056;-80
2022/02/24 05:03:38;;;;;;;11.15;1.58;;;7.90;99.90;;;;;;5015605;28;20038;-81
2022/02/24 05:06:05;;;;;;;11.88;2.15;;;7.90;99.90;;;;;;5044130;28;20033;-79
2022/02/24 05:08:31;;;;;;;10.32;1.90;;;7.90;99.90;;;;;;5032629;28;20021;-81
2022/02/24 05:10:57;;;;;;;10.88;1.75;;;7.90;99.90;;;;;;5039516;28;20116;-81
2022/02/24 05:13:22;;;;;;;14.77;2.03;;;7.90;99.90;;;;;;5033397;28;20100;-81
2022/02/24 05:15:49;;;;;;;11.00;2.05;;;7.90;99.90;;;;;;5026119;28;20033;-80
2022/02/24 05:18:14;;;;;;;11.05;1.88;;;7.90;99.90;;;;;;5031888;28;20013;-80
2022/02/24 05:20:40;;;;;;;10.52;1.40;;;7.90;99.90;;;;;;5038425;28;20553;-80
2022/02/24 05:23:06;;;;;;;14.50;1.88;;;7.90;99.90;;;;;;5043584;28;20051;-81
2022/02/24 05:25:35;;;;;;;12.05;1.83;;;7.90;99.90;;;;;;5038418;28;20507;-80
2022/02/24 05:28:05;;;;;;;10.73;1.67;;;7.80;99.90;;;;;;5041678;28;20034;-81
2022/02/24 05:30:31;;;;;;;5.15;1.40;;;7.90;99.90;;;;;;5047616;28;20400;-80
2022/02/24 05:32:56;;;;;;;12.90;1.88;;;7.90;99.90;;;;;;5044720;28;20034;-81
2022/02/24 05:35:22;;;;;;;12.13;2.10;;;7.90;99.90;;;;;;5032902;28;20531;-80
2022/02/24 05:37:48;;;;;;;11.25;1.75;;;7.80;99.90;;;;;;5024378;28;20041;-81
2022/02/24 05:40:14;;;;;;;14.27;2.50;;;7.90;99.90;;;;;;5028954;28;20041;-80
2022/02/24 05:42:39;;;;;;;10.38;1.48;;;7.80;99.90;;;;;;5024068;28;20073;-81
2022/02/24 05:45:05;;;;;;;15.10;2.50;;;7.90;99.90;;;;;;5018869;28;20025;-80
2022/02/24 05:47:31;;;;;;;10.30;1.98;;;7.90;99.90;;;;;;5017349;28;20480;-80
2022/02/24 05:49:56;;;;;;;9.25;1.80;;;7.90;99.90;;;;;;5017959;28;20033;-80
2022/02/24 05:52:22;;;;;;;12.45;1.83;;;7.90;99.90;;;;;;5016742;28;20037;-80
2022/02/24 05:54:47;;;;;;;14.88;2.25;;;7.80;99.90;;;;;;5016256;28;20385;-80
2022/02/24 05:57:13;;;;;;;11.52;2.20;;;7.80;99.90;;;;;;5017279;28;20057;-80
2022/02/24 05:59:39;;;;;;;9.68;1.70;;;7.90;99.90;;;;;;5019403;28;20053;-80
2022/02/24 06:02:04;;;;;;;16.50;1.90;;;7.90;99.90;;;;;;5018864;28;20113;-80
2022/02/24 06:04:30;;;;;;;13.18;2.17;;;7.90;99.90;;;;;;5016118;28;20116;-79
2022/02/24 06:06:55;;;;;;;14.00;1.60;;;7.80;99.90;;;;;;5022562;28;20021;-81
2022/02/24 06:09:21;;;;;;;10.02;1.60;;;7.80;99.90;;;;;;5018330;28;20080;-79
2022/02/24 06:11:49;;;;;;;9.10;1.13;;;7.80;99.90;;;;;;5030556;28;20059;-80
2022/02/24 06:14:15;;;;;;;16.33;1.80;;;7.80;99.90;;;;;;5030407;28;20049;-79
2022/02/24 06:16:41;;;;;;;12.73;1.45;;;7.80;99.90;;;;;;5036557;28;20424;-80
2022/02/24 06:19:06;;;;;;;9.52;1.52;;;7.80;99.90;;;;;;5029151;28;20063;-80
2022/02/24 06:21:32;;;;;;;13.10;2.03;;;7.80;99.90;;;;;;5024727;28;20428;-80
2022/02/24 06:23:57;;;;;;;12.10;1.70;;;7.90;99.90;;;;;;5023634;28;20024;-79
2022/02/24 06:26:23;;;;;;;12.68;1.92;;;7.80;99.90;;;;;;5030862;28;20029;-79
2022/02/24 06:28:49;;;;;;;16.15;1.85;;;7.80;99.90;;;;;;5042554;28;20032;-79
2022/02/24 06:31:15;;;;;;;11.25;1.83;;;7.80;99.90;;;;;;5027063;28;20037;-78
2022/02/24 06:33:41;;;;;;;11.70;1.55;;;7.80;99.90;;;;;;5013518;28;20341;-78
2022/02/24 06:36:06;;;;;;;13.20;1.42;;;7.80;99.90;;;;;;5010790;28;20037;-78
2022/02/24 06:38:32;;;;;;;8.98;1.65;;;7.80;99.90;;;;;;5027243;28;20030;-78
2022/02/24 06:40:58;;;;;;;10.75;1.50;;;7.80;99.90;;;;;;5029453;28;20041;-78
2022/02/24 06:43:23;;;;;;;11.80;1.40;;;7.80;99.90;;;;;;5030467;28;20029;-77
2022/02/24 06:45:50;;;;;;;19.00;1.52;;;7.80;99.90;;;;;;5029235;28;20037;-78
2022/02/24 06:48:16;;;;;;;9.50;1.30;;;7.80;99.90;;;;;;5029962;28;20033;-78
2022/02/24 06:50:43;;;;;;;9.00;1.13;;;7.70;99.90;;;;;;5029058;28;20385;-78
2022/02/24 06:53:10;;;;;;;12.57;1.80;;;7.70;99.90;;;;;;5032790;28;20048;-79
2022/02/24 06:55:35;;;;;;;8.20;1.00;;;7.70;99.90;;;;;;5029148;28;20064;-79
2022/02/24 06:58:01;;;;;;;12.77;1.77;;;7.70;99.90;;;;;;5026153;28;20099;-79
2022/02/24 07:00:26;;;;;;;9.00;1.02;;;7.80;99.90;;;;;;5027233;28;20095;-79
2022/02/24 07:02:53;;;;;;;8.35;1.20;;;7.90;99.90;;;;;;5041040;28;20082;-79
2022/02/24 07:05:19;;;;;;;10.80;1.10;;;7.90;99.90;;;;;;5025908;28;20033;-79
2022/02/24 07:07:44;;;;;;;15.05;1.85;;;8.00;99.90;;;;;;5029634;28;20440;-80
2022/02/24 07:10:14;;;;;;;29.60;7.13;;;7.90;99.90;;;;;;5022391;28;20040;-79
2022/02/24 07:12:42;;;;;;;44.40;17.30;;;8.00;99.90;;;;;;5029807;28;20068;-79
2022/02/24 07:15:09;;;;;;;36.40;8.18;;;8.10;99.90;;;;;;5020420;28;20083;-79
2022/02/24 07:17:42;;;;;;;14.63;3.25;;;8.10;99.90;;;;;;5026411;28;20110;-79
2022/02/24 07:20:09;;;;;;;13.02;1.67;;;8.20;99.90;;;;;;5010507;28;20501;-79
2022/02/24 07:22:35;;;;;;;10.65;2.08;;;8.10;99.90;;;;;;5025552;28;20108;-79
2022/02/24 07:25:01;;;;;;;10.15;1.23;;;8.10;99.90;;;;;;5029270;28;20136;-79
2022/02/24 07:27:26;;;;;;;8.80;1.20;;;8.10;99.90;;;;;;5030250;28;20338;-80
2022/02/24 07:29:52;;;;;;;7.68;0.90;;;8.20;99.90;;;;;;5030123;28;20033;-79
2022/02/24 07:32:17;;;;;;;8.43;1.55;;;8.20;99.90;;;;;;5042500;28;20025;-80
2022/02/24 07:34:43;;;;;;;8.80;1.00;;;8.20;99.90;;;;;;5029961;28;20025;-79
2022/02/24 07:37:08;;;;;;;6.78;0.70;;;8.20;99.90;;;;;;5026695;28;20056;-80
2022/02/24 07:39:34;;;;;;;13.25;1.10;;;8.20;99.90;;;;;;5029018;28;20033;-79
2022/02/24 07:42:00;;;;;;;6.47;0.70;;;8.20;99.90;;;;;;5023753;28;20053;-79
2022/02/24 07:44:25;;;;;;;10.43;0.98;;;8.20;99.90;;;;;;5028600;28;20477;-79
2022/02/24 07:46:51;;;;;;;9.25;1.02;;;8.20;99.90;;;;;;5034343;28;20060;-79
2022/02/24 07:49:16;;;;;;;7.20;1.00;;;8.10;99.90;;;;;;5022437;28;20423;-79
2022/02/24 07:51:46;;;;;;;10.23;1.02;;;8.10;99.90;;;;;;5052515;28;20041;-80
2022/02/24 07:54:12;;;;;;;5.47;1.00;;;8.00;99.90;;;;;;5034198;28;20036;-80
2022/02/24 07:56:37;;;;;;;10.45;1.30;;;8.00;99.90;;;;;;5042885;28;20033;-80
2022/02/24 07:59:03;;;;;;;10.70;1.13;;;8.00;99.90;;;;;;5028250;28;20380;-80
2022/02/24 08:01:28;;;;;;;8.48;1.13;;;8.00;99.90;;;;;;5018917;28;20073;-80
2022/02/24 08:03:55;;;;;;;8.38;1.00;;;8.00;99.90;;;;;;5029970;28;20041;-80
2022/02/24 08:06:21;;;;;;;9.82;1.17;;;7.90;99.90;;;;;;5017985;28;20444;-79
2022/02/24 08:08:47;;;;;;;7.15;1.55;;;7.90;99.90;;;;;;5018601;28;20033;-80
2022/02/24 08:11:13;;;;;;;7.80;1.10;;;7.90;99.90;;;;;;5021908;28;20079;-80
2022/02/24 08:13:38;;;;;;;12.98;0.93;;;7.80;99.90;;;;;;5034874;28;20580;-79
2022/02/24 08:16:04;;;;;;;9.43;1.13;;;7.90;99.90;;;;;;5047252;28;20083;-80
2022/02/24 08:18:30;;;;;;;9.75;1.15;;;7.90;99.90;;;;;;5023228;28;20052;-80
2022/02/24 08:20:55;;;;;;;8.10;1.20;;;7.90;99.90;;;;;;5036576;28;20048;-79
2022/02/24 08:23:22;;;;;;;8.32;1.10;;;8.00;99.90;;;;;;5041787;28;20053;-78
2022/02/24 08:25:48;;;;;;;8.32;1.35;;;8.00;99.90;;;;;;5050859;28;20108;-79
2022/02/24 08:28:13;;;;;;;10.93;1.27;;;8.00;99.90;;;;;;5036574;28;20100;-79
2022/02/24 08:30:39;;;;;;;6.90;0.98;;;8.00;99.90;;;;;;5033397;28;20033;-78
2022/02/24 08:33:05;;;;;;;7.47;0.88;;;8.00;99.90;;;;;;5031819;28;20033;-78
2022/02/24 08:35:31;;;;;;;7.38;0.88;;;8.00;99.90;;;;;;5042894;28;20022;-79
2022/02/24 08:37:56;;;;;;;7.13;0.93;;;8.00;99.90;;;;;;5012829;28;20468;-80
2022/02/24 08:40:23;;;;;;;9.43;1.20;;;8.00;99.90;;;;;;5041089;28;20455;-79
2022/02/24 08:42:52;;;;;;;9.95;1.17;;;8.10;99.90;;;;;;5043718;28;20116;-79
2022/02/24 08:45:19;;;;;;;9.02;1.20;;;8.20;99.90;;;;;;5047730;28;20037;-77
2022/02/24 08:47:45;;;;;;;13.90;1.45;;;8.30;99.90;;;;;;5047224;28;20580;-79
2022/02/24 08:50:12;;;;;;;8.68;0.98;;;8.30;99.90;;;;;;5038303;28;20116;-78
2022/02/24 08:52:37;;;;;;;15.10;1.10;;;8.30;99.90;;;;;;5038236;28;20048;-78
2022/02/24 08:55:04;;;;;;;11.10;1.02;;;8.30;99.90;;;;;;5045907;28;20033;-79
2022/02/24 08:57:29;;;;;;;9.90;0.80;;;8.30;99.90;;;;;;5050207;28;20063;-79
2022/02/24 08:59:55;;;;;;;9.88;1.13;;;8.30;99.90;;;;;;5031423;28;20096;-79
2022/02/24 09:02:20;;;;;;;11.43;0.93;;;8.40;99.90;;;;;;5030590;28;20092;-78
2022/02/24 09:04:46;;;;;;;6.30;0.88;;;8.50;99.90;;;;;;5020205;28;20037;-79
2022/02/24 09:07:12;;;;;;;15.43;2.38;;;8.50;99.90;;;;;;5034062;28;20558;-80
2022/02/24 09:09:37;;;;;;;7.97;0.88;;;8.50;99.90;;;;;;5010518;28;20052;-80
2022/02/24 09:12:03;;;;;;;9.95;0.80;;;8.50;99.90;;;;;;5032297;28;20025;-80
2022/02/24 09:14:29;;;;;;;8.77;1.05;;;8.60;99.90;;;;;;5046972;28;20116;-79
2022/02/24 09:16:55;;;;;;;8.95;0.75;;;8.60;99.90;;;;;;5049987;28;20029;-79
2022/02/24 09:19:21;;;;;;;7.78;0.98;;;8.60;99.90;;;;;;5032913;28;20077;-80
2022/02/24 09:21:47;;;;;;;7.32;1.33;;;8.60;99.90;;;;;;5047737;28;20064;-80
2022/02/24 09:24:13;;;;;;;7.93;0.70;;;8.60;99.90;;;;;;5043235;28;20119;-79
2022/02/24 09:26:38;;;;;;;10.00;0.80;;;8.70;99.90;;;;;;5051753;28;20029;-80
2022/02/24 09:29:05;;;;;;;9.85;0.93;;;8.70;99.90;;;;;;5039271;28;20022;-80
2022/02/24 09:31:31;;;;;;;8.60;1.02;;;8.80;99.90;;;;;;5032502;28;20485;-80
2022/02/24 09:33:56;;;;;;;8.63;0.65;;;9.00;99.90;;;;;;5042429;28;20040;-80
2022/02/24 09:36:22;;;;;;;10.13;0.82;;;9.20;99.90;;;;;;5051474;28;20025;-80
2022/02/24 09:38:48;;;;;;;8.63;0.68;;;9.30;99.90;;;;;;5034563;28;20079;-80
2022/02/24 09:41:14;;;;;;;11.05;0.90;;;9.30;99.90;;;;;;5040631;28;20072;-80
2022/02/24 09:43:40;;;;;;;6.60;1.23;;;9.40;99.90;;;;;;5049618;28;20025;-80
2022/02/24 09:46:09;;;;;;;5.75;0.65;;;9.40;99.90;;;;;;5038807;28;20520;-80
2022/02/24 09:48:36;;;;;;;7.93;1.42;;;9.50;99.90;;;;;;5039050;28;20383;-80
2022/02/24 09:51:05;;;;;;;10.95;1.23;;;9.60;99.90;;;;;;5028263;28;20042;-80
2022/02/24 09:53:32;;;;;;;8.60;0.63;;;9.70;99.90;;;;;;5033336;28;20032;-80
2022/02/24 09:55:59;;;;;;;9.45;1.25;;;9.70;99.90;;;;;;5045040;28;20036;-80
2022/02/24 09:58:25;;;;;;;6.82;0.80;;;9.80;99.90;;;;;;5049207;28;20112;-80
2022/02/24 10:00:52;;;;;;;7.75;0.80;;;9.90;99.90;;;;;;5039112;28;20374;-80
2022/02/24 10:03:31;;;;;;;6.53;1.02;;;10.00;99.90;;;;;;5031898;28;20029;-80
2022/02/24 10:05:58;;;;;;;6.35;0.85;;;10.10;99.90;;;;;;5051087;28;20032;-80
2022/02/24 10:08:33;;;;;;;8.00;0.65;;;10.10;99.90;;;;;;5032968;28;20086;-80
2022/02/24 10:11:01;;;;;;;7.43;0.80;;;10.20;99.90;;;;;;5048814;28;20384;-80
2022/02/24 10:13:27;;;;;;;8.38;0.75;;;10.20;99.90;;;;;;5031722;28;20033;-80
2022/02/24 10:15:58;;;;;;;5.78;0.60;;;10.20;99.90;;;;;;5050269;28;20435;-79
2022/02/24 10:18:29;;;;;;;9.25;1.58;;;10.20;99.90;;;;;;5040385;28;20037;-80
2022/02/24 10:20:58;;;;;;;9.43;0.82;;;10.20;99.90;;;;;;5028980;28;20506;-80
2022/02/24 10:23:53;;;;;;;11.95;0.90;;;10.30;99.90;;;;;;5038459;28;20079;-80
2022/02/24 10:26:19;;;;;;;6.93;0.80;;;10.30;99.90;;;;;;5033221;28;20506;-80
2022/02/24 10:28:48;;;;;;;7.15;0.63;;;10.30;99.90;;;;;;5049208;28;20030;-80
2022/02/24 10:31:23;;;;;;;9.00;0.77;;;10.40;99.90;;;;;;5033838;28;20025;-80
2022/02/24 10:33:50;;;;;;;9.10;1.17;;;10.30;99.90;;;;;;5037499;28;20095;-80
2022/02/24 10:36:24;;;;;;;9.18;1.02;;;10.30;99.90;;;;;;5044452;28;20025;-80
2022/02/24 10:39:08;;;;;;;11.10;0.70;;;10.30;99.90;;;;;;5046244;28;20598;-80
2022/02/24 10:41:36;;;;;;;8.32;0.85;;;10.20;99.90;;;;;;5047025;28;20025;-80
2022/02/24 10:44:20;;;;;;;8.95;0.70;;;10.20;99.90;;;;;;5043604;28;20047;-80
2022/02/24 10:46:49;;;;;;;5.95;0.90;;;10.20;99.90;;;;;;5051538;28;20032;-80
2022/02/24 10:49:36;;;;;;;6.60;0.65;;;10.20;99.90;;;;;;5043586;28;20048;-80
2022/02/24 10:52:16;;;;;;;7.57;0.70;;;10.20;99.90;;;;;;5049909;28;20468;-80
2022/02/24 10:54:44;;;;;;;7.47;0.80;;;10.20;99.90;;;;;;5034376;28;20033;-81
2022/02/24 10:57:21;;;;;;;6.65;0.63;;;10.20;99.90;;;;;;5033369;28;20032;-81
2022/02/24 10:59:47;;;;;;;7.78;0.93;;;10.20;99.90;;;;;;5032341;28;20037;-80
2022/02/24 11:02:13;;;;;;;6.72;0.60;;;10.20;99.90;;;;;;5051271;28;20035;-81
2022/02/24 11:04:40;;;;;;;5.70;0.60;;;10.20;99.90;;;;;;5038563;28;20108;-82
2022/02/24 11:07:07;;;;;;;8.82;0.63;;;10.20;99.90;;;;;;5030006;28;20025;-82
2022/02/24 11:09:37;;;;;;;8.65;0.70;;;10.30;99.90;;;;;;5031633;28;20029;-82
2022/02/24 11:12:06;;;;;;;9.40;1.25;;;10.30;99.90;;;;;;5039491;28;20564;-81
2022/02/24 11:14:35;;;;;;;7.68;0.55;;;10.40;99.90;;;;;;5020917;28;20049;-81
2022/02/24 11:17:06;;;;;;;8.60;0.70;;;10.40;99.90;;;;;;5034829;28;20464;-80
2022/02/24 11:19:32;;;;;;;7.03;0.60;;;10.50;99.40;;;;;;5045634;28;20033;-80
2022/02/24 11:22:00;;;;;;;5.97;0.70;;;10.50;99.50;;;;;;5018050;28;20496;-80
2022/02/24 11:24:26;;;;;;;7.43;0.80;;;10.50;99.70;;;;;;5035348;28;20057;-81
2022/02/24 11:27:17;;;;;;;4.95;0.77;;;10.50;99.90;;;;;;5033808;28;20412;-81
2022/02/24 11:29:50;;;;;;;9.75;1.02;;;10.60;99.90;;;;;;5041758;28;20021;-80
2022/02/24 11:32:20;;;;;;;4.57;0.55;;;10.60;99.50;;;;;;5042834;28;20040;-80
2022/02/24 11:35:00;;;;;;;5.47;0.50;;;10.60;99.30;;;;;;5015614;28;20545;-80
2022/02/24 11:37:31;;;;;;;8.77;0.60;;;10.70;98.50;;;;;;5029835;28;20109;-79
2022/02/24 11:40:02;;;;;;;5.10;0.40;;;10.80;98.80;;;;;;5035759;28;20029;-82
2022/02/24 11:42:30;;;;;;;3.92;0.40;;;10.90;98.80;;;;;;5035863;28;20125;-84
2022/02/24 11:44:56;;;;;;;5.07;0.50;;;11.00;97.90;;;;;;5034201;28;20026;-83
2022/02/24 11:47:23;;;;;;;3.95;0.40;;;11.10;97.10;;;;;;5036066;28;20087;-86
2022/02/24 11:50:15;;;;;;;8.98;0.80;;;11.10;96.90;;;;;;5036374;28;20017;-85
2022/02/24 11:52:46;;;;;;;3.63;0.50;;;11.10;96.50;;;;;;5036362;28;20095;-84
2022/02/24 11:55:42;;;;;;;4.63;0.40;;;11.20;96.50;;;;;;5036350;28;20025;-86
2022/02/24 11:58:30;;;;;;;5.20;0.50;;;11.20;97.00;;;;;;5035960;28;20037;-87
2022/02/24 12:01:27;;;;;;;3.63;0.30;;;11.40;96.00;;;;;;5035430;28;20042;-85
2022/02/24 12:03:55;;;;;;;4.75;0.60;;;11.40;95.30;;;;;;5035864;28;20531;-84
2022/02/24 12:06:36;;;;;;;2.55;0.30;;;11.50;96.20;;;;;;5025393;28;20034;-85
2022/02/24 12:09:15;;;;;;;3.05;0.28;;;11.70;96.80;;;;;;5015910;28;20068;-84
2022/02/24 12:11:43;;;;;;;3.45;0.40;;;11.90;96.90;;;;;;5029566;28;20113;-84
2022/02/24 12:14:24;;;;;;;4.68;0.40;;;11.90;96.20;;;;;;5036326;28;20040;-85
2022/02/24 12:17:04;;;;;;;2.70;0.35;;;11.90;96.40;;;;;;5035139;28;20032;-84
2022/02/24 12:19:58;;;;;;;3.63;0.45;;;11.90;96.00;;;;;;5034846;28;20026;-85
2022/02/24 12:22:31;;;;;;;5.70;0.55;;;11.90;95.50;;;;;;5026199;28;20095;-85
2022/02/24 12:25:10;;;;;;;5.78;0.43;;;12.00;95.90;;;;;;5039004;28;20258;-84
2022/02/24 12:27:55;;;;;;;2.33;0.40;;;12.10;95.30;;;;;;5035143;28;20485;-82
2022/02/24 12:30:27;;;;;;;4.20;0.40;;;12.10;95.00;;;;;;5036043;28;20022;-85
2022/02/24 12:33:06;;;;;;;4.28;0.45;;;12.10;94.40;;;;;;5044566;28;20078;-85
2022/02/24 12:35:35;;;;;;;3.25;0.28;;;12.00;93.90;;;;;;5037751;28;20151;-84
2022/02/24 12:38:03;;;;;;;5.25;0.40;;;11.90;93.80;;;;;;5035371;28;20025;-84
2022/02/24 12:40:38;;;;;;;4.05;0.50;;;11.90;93.80;;;;;;5034174;28;20366;-83
2022/02/24 12:43:10;;;;;;;2.53;0.40;;;11.80;94.40;;;;;;5045116;28;20380;-84
2022/02/24 12:45:37;;;;;;;3.03;0.40;;;11.90;94.70;;;;;;5054865;28;20380;-84
2022/02/24 12:48:06;;;;;;;3.50;0.50;;;11.90;94.40;;;;;;5054118;28;20108;-83
2022/02/24 12:50:39;;;;;;;2.80;0.40;;;12.00;95.20;;;;;;5019418;28;20550;-84
2022/02/24 12:53:09;;;;;;;6.97;0.68;;;12.00;95.30;;;;;;4996830;28;20523;-85